createdAt,value
2018-09-22T00:00:06.235Z,12.15
2018-09-22T00:01:06.110Z,12.12
2018-09-22T00:02:05.989Z,11.90
2018-09-22T00:03:05.864Z,11.80
2018-09-22T00:04:05.740Z,11.77
2018-09-22T00:05:05.617Z,11.85
2018-09-22T00:06:05.494Z,11.72
2018-09-22T00:07:05.369Z,11.77
2018-09-22T00:08:05.244Z,11.87
2018-09-22T00:09:05.120Z,11.82
2018-09-22T00:10:04.999Z,11.77
2018-09-22T00:11:04.872Z,11.83
2018-09-22T00:12:04.748Z,11.83
2018-09-22T00:13:04.627Z,11.83
2018-09-22T00:14:04.522Z,11.83
2018-09-22T00:15:04.376Z,11.86
2018-09-22T00:16:04.253Z,11.83
2018-09-22T00:17:04.131Z,11.71
2018-09-22T00:18:04.006Z,11.64
2018-09-22T00:19:03.883Z,11.57
2018-09-22T00:20:03.760Z,11.70
2018-09-22T00:21:03.635Z,11.72
2018-09-22T00:22:03.512Z,11.82
2018-09-22T00:23:03.387Z,11.78
2018-09-22T00:24:03.264Z,11.77
2018-09-22T00:25:03.140Z,11.68
2018-09-22T00:26:03.017Z,11.68
2018-09-22T00:27:02.892Z,11.71
2018-09-22T00:28:02.765Z,11.68
2018-09-22T00:29:02.645Z,11.75
2018-09-22T00:30:02.525Z,11.57
2018-09-22T00:31:02.395Z,11.46
2018-09-22T00:32:02.275Z,11.43
2018-09-22T00:33:02.147Z,11.49
2018-09-22T00:34:02.022Z,11.49
2018-09-22T00:35:01.898Z,11.47
2018-09-22T00:36:01.776Z,11.49
2018-09-22T00:37:01.650Z,11.52
2018-09-22T00:38:01.527Z,11.52
2018-09-22T00:39:01.402Z,11.49
2018-09-22T00:40:01.278Z,11.31
2018-09-22T00:41:01.156Z,10.99
2018-09-22T00:42:01.031Z,10.83
2018-09-22T00:43:00.906Z,10.99
2018-09-22T00:44:00.783Z,11.02
2018-09-22T00:45:00.659Z,10.99
2018-09-22T00:46:00.531Z,11.21
2018-09-22T00:47:00.406Z,11.21
2018-09-22T00:48:00.283Z,11.20
2018-09-22T00:49:00.161Z,11.27
2018-09-22T00:50:00.037Z,11.28
2018-09-22T00:50:59.911Z,11.25
2018-09-22T00:51:59.790Z,11.19
2018-09-22T00:52:59.663Z,11.17
2018-09-22T00:53:59.539Z,11.25
2018-09-22T00:54:59.415Z,11.19
2018-09-22T00:55:59.295Z,11.24
2018-09-22T00:56:59.164Z,11.14
2018-09-22T00:57:59.048Z,11.25
2018-09-22T00:58:58.917Z,11.11
2018-09-22T00:59:58.793Z,11.11
2018-09-22T01:00:58.669Z,10.95
2018-09-22T01:01:58.545Z,10.70
2018-09-22T01:02:58.418Z,10.55
2018-09-22T01:03:58.296Z,10.65
2018-09-22T01:04:58.171Z,10.66
2018-09-22T01:05:58.046Z,10.71
2018-09-22T01:06:57.923Z,10.60
2018-09-22T01:07:57.806Z,10.52
2018-09-22T01:08:57.675Z,10.60
2018-09-22T01:09:57.550Z,10.62
2018-09-22T01:10:57.422Z,10.59
2018-09-22T01:11:57.301Z,10.55
2018-09-22T01:12:57.175Z,10.47
2018-09-22T01:13:57.050Z,10.43
2018-09-22T01:14:56.928Z,10.53
2018-09-22T01:15:56.856Z,10.46
2018-09-22T01:16:56.676Z,10.47
2018-09-22T01:17:56.551Z,10.37
2018-09-22T01:18:56.427Z,10.40
2018-09-22T01:19:56.303Z,10.42
2018-09-22T01:20:56.176Z,10.52
2018-09-22T01:21:56.052Z,10.58
2018-09-22T01:22:55.933Z,10.47
2018-09-22T01:23:55.804Z,10.26
2018-09-22T01:24:55.681Z,10.21
2018-09-22T01:25:55.551Z,10.21
2018-09-22T01:26:55.428Z,10.18
2018-09-22T01:27:55.301Z,10.15
2018-09-22T01:28:55.179Z,10.17
2018-09-22T01:29:55.054Z,10.17
2018-09-22T01:30:54.929Z,10.26
2018-09-22T01:31:54.804Z,10.37
2018-09-22T01:32:54.682Z,10.51
2018-09-22T01:33:54.556Z,10.52
2018-09-22T01:34:54.430Z,10.47
2018-09-22T01:35:54.305Z,10.62
2018-09-22T01:36:54.182Z,10.56
2018-09-22T01:37:54.059Z,10.59
2018-09-22T01:38:53.933Z,10.59
2018-09-22T01:39:53.806Z,10.62
2018-09-22T01:40:53.684Z,10.59
2018-09-22T01:41:53.557Z,10.65
2018-09-22T01:42:53.433Z,10.56
2018-09-22T01:43:53.309Z,10.53
2018-09-22T01:44:53.181Z,10.39
2018-09-22T01:45:53.057Z,10.39
2018-09-22T01:46:52.935Z,10.43
2018-09-22T01:47:52.808Z,10.43
2018-09-22T01:48:52.684Z,10.39
2018-09-22T01:49:52.559Z,10.37
2018-09-22T01:50:52.433Z,10.30
2018-09-22T01:51:52.312Z,10.36
2018-09-22T01:52:52.188Z,10.44
2018-09-22T01:53:52.061Z,10.39
2018-09-22T01:54:51.934Z,10.37
2018-09-22T01:55:51.815Z,10.26
2018-09-22T01:56:51.686Z,10.22
2018-09-22T01:57:51.560Z,10.28
2018-09-22T01:58:51.434Z,10.34
2018-09-22T01:59:51.309Z,10.22
2018-09-22T02:00:51.186Z,10.25
2018-09-22T02:01:51.062Z,10.34
2018-09-22T02:02:50.936Z,10.30
2018-09-22T02:03:50.812Z,10.19
2018-09-22T02:04:50.689Z,10.17
2018-09-22T02:05:50.561Z,10.01
2018-09-22T02:06:50.437Z,9.86
2018-09-22T02:07:50.310Z,9.86
2018-09-22T02:08:50.187Z,9.76
2018-09-22T02:09:50.062Z,9.71
2018-09-22T02:10:49.938Z,9.82
2018-09-22T02:11:49.811Z,9.79
2018-09-22T02:12:49.686Z,9.86
2018-09-22T02:13:49.562Z,9.73
2018-09-22T02:14:49.436Z,9.75
2018-09-22T02:15:49.311Z,9.66
2018-09-22T02:16:49.184Z,9.73
2018-09-22T02:17:49.063Z,9.70
2018-09-22T02:18:48.936Z,9.75
2018-09-22T02:19:48.809Z,9.73
2018-09-22T02:20:48.685Z,9.79
2018-09-22T02:21:48.560Z,9.75
2018-09-22T02:22:48.436Z,9.70
2018-09-22T02:23:48.312Z,9.78
2018-09-22T02:24:48.192Z,9.76
2018-09-22T02:25:48.063Z,9.73
2018-09-22T02:26:47.932Z,9.58
2018-09-22T02:27:47.809Z,9.67
2018-09-22T02:28:47.682Z,9.50
2018-09-22T02:29:47.558Z,9.34
2018-09-22T02:30:47.436Z,9.30
2018-09-22T02:31:47.307Z,9.28
2018-09-22T02:32:47.187Z,9.25
2018-09-22T02:33:47.055Z,9.23
2018-09-22T02:34:46.934Z,9.18
2018-09-22T02:35:46.809Z,9.24
2018-09-22T02:36:46.679Z,9.12
2018-09-22T02:37:46.560Z,9.09
2018-09-22T02:38:46.430Z,9.05
2018-09-22T02:39:46.300Z,9.06
2018-09-22T02:40:46.177Z,9.16
2018-09-22T02:41:46.052Z,9.15
2018-09-22T02:42:45.926Z,9.21
2018-09-22T02:43:45.808Z,9.01
2018-09-22T02:44:45.675Z,9.04
2018-09-22T02:45:45.548Z,9.09
2018-09-22T02:46:45.423Z,9.10
2018-09-22T02:47:45.297Z,9.18
2018-09-22T02:48:45.172Z,9.21
2018-09-22T02:49:45.046Z,9.15
2018-09-22T02:50:44.920Z,9.27
2018-09-22T02:51:44.797Z,9.21
2018-09-22T02:52:44.669Z,9.21
2018-09-22T02:53:44.546Z,9.27
2018-09-22T02:54:44.417Z,9.27
2018-09-22T02:55:44.293Z,9.27
2018-09-22T02:56:44.165Z,9.04
2018-09-22T02:57:44.042Z,9.09
2018-09-22T02:58:43.914Z,9.10
2018-09-22T02:59:43.790Z,9.10
2018-09-22T03:00:43.662Z,9.09
2018-09-22T03:01:43.536Z,8.97
2018-09-22T03:02:43.409Z,8.99
2018-09-22T03:03:43.285Z,8.93
2018-09-22T03:04:43.164Z,8.90
2018-09-22T03:05:43.051Z,8.91
2018-09-22T03:06:42.921Z,8.86
2018-09-22T03:07:42.781Z,8.79
2018-09-22T03:08:42.700Z,8.78
2018-09-22T03:09:42.531Z,8.87
2018-09-22T03:10:42.406Z,8.76
2018-09-22T03:11:42.278Z,8.79
2018-09-22T03:12:42.155Z,8.73
2018-09-22T03:13:42.025Z,8.66
2018-09-22T03:14:41.946Z,8.76
2018-09-22T03:15:41.773Z,8.63
2018-09-22T03:16:41.651Z,8.51
2018-09-22T03:17:41.529Z,8.53
2018-09-22T03:18:41.397Z,8.50
2018-09-22T03:19:41.271Z,8.48
2018-09-22T03:20:41.144Z,8.42
2018-09-22T03:21:41.019Z,8.37
2018-09-22T03:22:40.892Z,8.45
2018-09-22T03:23:40.768Z,8.45
2018-09-22T03:24:40.642Z,8.30
2018-09-22T03:25:40.515Z,8.28
2018-09-22T03:26:40.388Z,8.30
2018-09-22T03:27:40.261Z,8.29
2018-09-22T03:28:40.135Z,8.33
2018-09-22T03:29:40.010Z,8.30
2018-09-22T03:30:39.881Z,8.35
2018-09-22T03:31:39.756Z,8.26
2018-09-22T03:32:39.628Z,8.29
2018-09-22T03:33:39.503Z,8.42
2018-09-22T03:34:39.375Z,8.51
2018-09-22T03:35:39.249Z,8.51
2018-09-22T03:36:39.123Z,8.50
2018-09-22T03:37:38.999Z,8.47
2018-09-22T03:38:38.870Z,8.51
2018-09-22T03:39:38.744Z,8.36
2018-09-22T03:40:38.618Z,8.25
2018-09-22T03:41:38.491Z,8.29
2018-09-22T03:42:38.365Z,8.14
2018-09-22T03:43:38.241Z,8.07
2018-09-22T03:44:38.114Z,7.85
2018-09-22T03:45:37.988Z,7.84
2018-09-22T03:46:37.859Z,8.10
2018-09-22T03:47:37.737Z,8.12
2018-09-22T03:48:37.606Z,8.12
2018-09-22T03:49:37.486Z,8.21
2018-09-22T03:50:37.356Z,8.28
2018-09-22T03:51:37.233Z,8.37
2018-09-22T03:52:37.102Z,8.30
2018-09-22T03:53:36.977Z,8.26
2018-09-22T03:54:36.853Z,8.32
2018-09-22T03:55:36.727Z,8.29
2018-09-22T03:56:36.597Z,8.28
2018-09-22T03:57:36.471Z,8.14
2018-09-22T03:58:36.344Z,8.10
2018-09-22T03:59:36.220Z,7.89
2018-09-22T04:00:36.091Z,7.78
2018-09-22T04:01:35.968Z,7.71
2018-09-22T04:02:35.839Z,7.66
2018-09-22T04:03:35.711Z,7.56
2018-09-22T04:04:35.584Z,7.47
2018-09-22T04:05:35.458Z,7.45
2018-09-22T04:06:35.334Z,7.58
2018-09-22T04:07:35.205Z,7.58
2018-09-22T04:08:35.078Z,7.62
2018-09-22T04:09:34.952Z,7.75
2018-09-22T04:10:34.827Z,7.79
2018-09-22T04:11:34.700Z,7.58
2018-09-22T04:12:34.574Z,7.62
2018-09-22T04:13:34.447Z,7.78
2018-09-22T04:14:34.318Z,7.75
2018-09-22T04:15:34.190Z,7.63
2018-09-22T04:16:34.063Z,7.59
2018-09-22T04:17:33.939Z,7.67
2018-09-22T04:18:33.809Z,7.63
2018-09-22T04:19:33.686Z,7.60
2018-09-22T04:20:33.556Z,7.45
2018-09-22T04:21:33.429Z,7.34
2018-09-22T04:22:33.304Z,7.59
2018-09-22T04:23:33.174Z,7.67
2018-09-22T04:24:33.049Z,7.66
2018-09-22T04:25:32.923Z,7.81
2018-09-22T04:26:32.795Z,7.81
2018-09-22T04:27:32.668Z,7.77
2018-09-22T04:28:32.542Z,7.82
2018-09-22T04:29:32.415Z,7.78
2018-09-22T04:30:32.300Z,7.77
2018-09-22T04:31:32.160Z,7.78
2018-09-22T04:32:32.034Z,7.78
2018-09-22T04:33:31.920Z,7.79
2018-09-22T04:34:31.782Z,7.69
2018-09-22T04:35:31.658Z,7.63
2018-09-22T04:36:31.526Z,7.69
2018-09-22T04:37:31.398Z,7.45
2018-09-22T04:38:31.274Z,7.42
2018-09-22T04:39:31.152Z,7.42
2018-09-22T04:40:31.019Z,7.34
2018-09-22T04:41:30.893Z,7.56
2018-09-22T04:42:30.771Z,7.49
2018-09-22T04:43:30.637Z,7.62
2018-09-22T04:44:30.512Z,7.62
2018-09-22T04:45:30.387Z,7.75
2018-09-22T04:46:30.257Z,7.81
2018-09-22T04:47:30.131Z,7.78
2018-09-22T04:48:30.006Z,7.78
2018-09-22T04:49:29.878Z,7.84
2018-09-22T04:50:29.751Z,7.84
2018-09-22T04:51:29.624Z,7.79
2018-09-22T04:52:29.501Z,7.67
2018-09-22T04:53:29.403Z,7.79
2018-09-22T04:54:29.276Z,7.74
2018-09-22T04:55:29.318Z,7.72
2018-09-22T04:56:28.994Z,7.59
2018-09-22T04:57:28.866Z,7.63
2018-09-22T04:58:28.735Z,7.50
2018-09-22T04:59:28.610Z,7.45
2018-09-22T05:00:28.485Z,7.44
2018-09-22T05:01:28.357Z,7.31
2018-09-22T05:02:28.230Z,7.32
2018-09-22T05:03:28.103Z,7.16
2018-09-22T05:04:27.976Z,7.17
2018-09-22T05:05:27.849Z,7.15
2018-09-22T05:06:27.721Z,7.17
2018-09-22T05:07:27.593Z,7.09
2018-09-22T05:08:27.465Z,7.17
2018-09-22T05:09:27.345Z,7.12
2018-09-22T05:10:27.212Z,7.16
2018-09-22T05:11:27.136Z,7.04
2018-09-22T05:12:26.958Z,7.02
2018-09-22T05:13:26.832Z,7.01
2018-09-22T05:14:26.702Z,6.98
2018-09-22T05:15:26.582Z,7.01
2018-09-22T05:16:26.452Z,7.01
2018-09-22T05:17:26.345Z,6.99
2018-09-22T05:18:26.194Z,7.07
2018-09-22T05:19:26.066Z,7.02
2018-09-22T05:20:25.982Z,6.94
2018-09-22T05:21:25.815Z,6.94
2018-09-22T05:22:25.685Z,6.97
2018-09-22T05:23:25.558Z,6.91
2018-09-22T05:24:25.443Z,6.94
2018-09-22T05:25:25.306Z,6.99
2018-09-22T05:26:25.176Z,7.07
2018-09-22T05:27:25.144Z,6.90
2018-09-22T05:28:24.923Z,6.80
2018-09-22T05:29:24.797Z,6.84
2018-09-22T05:30:24.666Z,6.77
2018-09-22T05:31:24.631Z,6.73
2018-09-22T05:32:24.551Z,6.76
2018-09-22T05:33:24.290Z,6.89
2018-09-22T05:34:24.157Z,6.99
2018-09-22T05:35:24.038Z,6.99
2018-09-22T05:36:23.906Z,6.99
2018-09-22T05:37:23.777Z,7.04
2018-09-22T05:38:23.649Z,7.13
2018-09-22T05:39:23.528Z,7.08
2018-09-22T05:40:23.415Z,7.12
2018-09-22T05:41:23.266Z,7.08
2018-09-22T05:42:23.142Z,7.09
2018-09-22T05:43:23.055Z,6.99
2018-09-22T05:44:22.899Z,6.91
2018-09-22T05:45:22.757Z,7.01
2018-09-22T05:46:22.630Z,6.98
2018-09-22T05:47:22.505Z,6.89
2018-09-22T05:48:22.551Z,7.02
2018-09-22T05:49:22.256Z,6.87
2018-09-22T05:50:22.404Z,6.94
2018-09-22T05:51:21.994Z,6.99
2018-09-22T05:52:22.202Z,7.01
2018-09-22T05:53:21.742Z,6.94
2018-09-22T05:54:21.610Z,6.98
2018-09-22T05:55:21.484Z,6.99
2018-09-22T05:56:21.356Z,7.07
2018-09-22T05:57:21.230Z,7.04
2018-09-22T05:58:21.101Z,7.02
2018-09-22T05:59:20.980Z,7.02
2018-09-22T06:00:20.849Z,7.01
2018-09-22T06:01:20.721Z,6.99
2018-09-22T06:02:20.592Z,7.01
2018-09-22T06:03:20.483Z,6.95
2018-09-22T06:04:20.336Z,6.95
2018-09-22T06:05:20.210Z,6.94
2018-09-22T06:06:20.081Z,6.90
2018-09-22T06:07:19.955Z,6.90
2018-09-22T06:08:19.827Z,6.97
2018-09-22T06:09:19.699Z,6.97
2018-09-22T06:10:19.573Z,6.97
2018-09-22T06:11:19.446Z,6.99
2018-09-22T06:12:19.318Z,7.07
2018-09-22T06:13:19.190Z,7.12
2018-09-22T06:14:19.069Z,7.09
2018-09-22T06:15:18.936Z,7.15
2018-09-22T06:16:18.809Z,7.15
2018-09-22T06:17:18.682Z,7.13
2018-09-22T06:18:18.558Z,7.19
2018-09-22T06:19:18.426Z,7.17
2018-09-22T06:20:18.299Z,7.23
2018-09-22T06:21:18.181Z,7.13
2018-09-22T06:22:18.046Z,7.20
2018-09-22T06:23:17.968Z,7.22
2018-09-22T06:24:17.804Z,7.23
2018-09-22T06:25:17.669Z,7.31
2018-09-22T06:26:17.535Z,7.22
2018-09-22T06:27:17.407Z,7.31
2018-09-22T06:28:17.282Z,7.24
2018-09-22T06:29:17.155Z,7.09
2018-09-22T06:30:17.028Z,7.04
2018-09-22T06:31:16.957Z,6.98
2018-09-22T06:32:16.773Z,7.04
2018-09-22T06:33:16.645Z,6.89
2018-09-22T06:34:16.518Z,6.91
2018-09-22T06:35:16.389Z,6.76
2018-09-22T06:36:16.264Z,6.95
2018-09-22T06:37:16.164Z,6.94
2018-09-22T06:38:16.008Z,6.95
2018-09-22T06:39:15.881Z,7.02
2018-09-22T06:40:15.754Z,7.02
2018-09-22T06:41:15.632Z,7.17
2018-09-22T06:42:15.500Z,7.16
2018-09-22T06:43:15.376Z,7.20
2018-09-22T06:44:15.299Z,7.29
2018-09-22T06:45:15.137Z,7.40
2018-09-22T06:46:15.047Z,7.42
2018-09-22T06:47:14.862Z,7.50
2018-09-22T06:48:14.737Z,7.47
2018-09-22T06:49:14.609Z,7.47
2018-09-22T06:50:14.487Z,7.44
2018-09-22T06:51:14.353Z,7.34
2018-09-22T06:52:14.226Z,7.38
2018-09-22T06:53:14.101Z,7.32
2018-09-22T06:54:13.972Z,7.20
2018-09-22T06:55:13.845Z,7.31
2018-09-22T06:56:13.719Z,7.24
2018-09-22T06:57:13.593Z,7.27
2018-09-22T06:58:13.462Z,7.19
2018-09-22T06:59:13.335Z,7.17
2018-09-22T07:00:13.212Z,7.16
2018-09-22T07:01:13.084Z,7.16
2018-09-22T07:02:12.955Z,7.27
2018-09-22T07:03:12.828Z,7.32
2018-09-22T07:04:12.701Z,7.31
2018-09-22T07:05:12.574Z,7.31
2018-09-22T07:06:12.447Z,7.32
2018-09-22T07:07:12.326Z,7.31
2018-09-22T07:08:12.194Z,7.16
2018-09-22T07:09:12.065Z,7.19
2018-09-22T07:10:11.937Z,7.12
2018-09-22T07:11:11.811Z,7.07
2018-09-22T07:12:11.681Z,6.94
2018-09-22T07:13:11.556Z,6.90
2018-09-22T07:14:11.427Z,6.90
2018-09-22T07:15:11.300Z,6.94
2018-09-22T07:16:11.173Z,6.97
2018-09-22T07:17:11.047Z,6.97
2018-09-22T07:18:10.918Z,7.08
2018-09-22T07:19:10.794Z,7.05
2018-09-22T07:20:10.663Z,7.13
2018-09-22T07:21:10.536Z,7.13
2018-09-22T07:22:10.408Z,7.19
2018-09-22T07:23:10.288Z,7.08
2018-09-22T07:24:10.154Z,7.15
2018-09-22T07:25:10.026Z,7.29
2018-09-22T07:26:09.898Z,7.26
2018-09-22T07:27:09.771Z,7.34
2018-09-22T07:28:09.645Z,7.31
2018-09-22T07:29:09.517Z,7.38
2018-09-22T07:30:09.390Z,7.42
2018-09-22T07:31:09.268Z,7.45
2018-09-22T07:32:09.139Z,7.50
2018-09-22T07:33:09.009Z,7.49
2018-09-22T07:34:08.895Z,7.45
2018-09-22T07:35:08.755Z,7.35
2018-09-22T07:36:08.627Z,7.32
2018-09-22T07:37:08.499Z,7.35
2018-09-22T07:38:08.391Z,7.35
2018-09-22T07:39:08.243Z,7.38
2018-09-22T07:40:08.118Z,7.37
2018-09-22T07:41:07.994Z,7.45
2018-09-22T07:42:07.864Z,7.53
2018-09-22T07:43:07.741Z,7.59
2018-09-22T07:44:07.610Z,7.63
2018-09-22T07:45:07.485Z,7.81
2018-09-22T07:46:07.355Z,7.79
2018-09-22T07:47:07.229Z,7.89
2018-09-22T07:48:07.103Z,7.79
2018-09-22T07:49:06.972Z,7.89
2018-09-22T07:50:06.848Z,7.89
2018-09-22T07:51:06.720Z,7.82
2018-09-22T07:52:06.594Z,7.87
2018-09-22T07:53:06.465Z,7.79
2018-09-22T07:54:06.340Z,7.84
2018-09-22T07:55:06.212Z,7.79
2018-09-22T07:56:06.086Z,7.82
2018-09-22T07:57:06.014Z,7.81
2018-09-22T07:58:05.833Z,7.85
2018-09-22T07:59:05.706Z,7.81
2018-09-22T08:00:05.579Z,7.77
2018-09-22T08:01:05.452Z,7.74
2018-09-22T08:02:05.323Z,7.72
2018-09-22T08:03:05.199Z,7.63
2018-09-22T08:04:05.070Z,7.72
2018-09-22T08:05:04.945Z,7.53
2018-09-22T08:06:04.819Z,7.49
2018-09-22T08:07:04.693Z,7.59
2018-09-22T08:08:04.568Z,7.55
2018-09-22T08:09:04.435Z,7.67
2018-09-22T08:10:04.310Z,7.69
2018-09-22T08:11:04.182Z,7.71
2018-09-22T08:12:04.057Z,7.82
2018-09-22T08:13:03.931Z,7.67
2018-09-22T08:14:03.802Z,7.62
2018-09-22T08:15:03.677Z,7.38
2018-09-22T08:16:03.548Z,7.52
2018-09-22T08:17:03.421Z,7.62
2018-09-22T08:18:03.296Z,7.81
2018-09-22T08:19:03.171Z,7.82
2018-09-22T08:20:03.042Z,7.79
2018-09-22T08:21:02.916Z,7.90
2018-09-22T08:22:02.788Z,7.96
2018-09-22T08:23:02.662Z,7.97
2018-09-22T08:24:02.536Z,7.99
2018-09-22T08:25:02.411Z,7.85
2018-09-22T08:26:02.282Z,8.02
2018-09-22T08:27:02.161Z,7.99
2018-09-22T08:28:02.029Z,7.81
2018-09-22T08:29:01.901Z,7.79
2018-09-22T08:30:01.777Z,7.56
2018-09-22T08:31:01.650Z,7.40
2018-09-22T08:32:01.570Z,7.47
2018-09-22T08:33:01.397Z,7.79
2018-09-22T08:34:01.270Z,7.84
2018-09-22T08:35:01.143Z,7.82
2018-09-22T08:36:01.132Z,7.89
2018-09-22T08:37:01.145Z,7.94
2018-09-22T08:38:00.763Z,7.97
2018-09-22T08:39:00.646Z,8.03
2018-09-22T08:40:00.509Z,8.08
2018-09-22T08:41:00.392Z,8.00
2018-09-22T08:42:00.270Z,8.17
2018-09-22T08:43:00.134Z,8.17
2018-09-22T08:44:00.080Z,8.18
2018-09-22T08:44:59.887Z,8.29
2018-09-22T08:45:59.758Z,8.42
2018-09-22T08:46:59.622Z,8.55
2018-09-22T08:47:59.500Z,8.63
2018-09-22T08:48:59.372Z,8.68
2018-09-22T08:49:59.291Z,8.62
2018-09-22T08:50:59.124Z,8.69
2018-09-22T08:51:58.993Z,8.71
2018-09-22T08:52:58.869Z,8.73
2018-09-22T08:53:58.738Z,8.72
2018-09-22T08:54:58.614Z,8.69
2018-09-22T08:55:58.496Z,8.79
2018-09-22T08:56:58.358Z,8.81
2018-09-22T08:57:58.321Z,8.88
2018-09-22T08:58:58.110Z,8.75
2018-09-22T08:59:57.980Z,8.75
2018-09-22T09:00:57.855Z,8.81
2018-09-22T09:01:57.729Z,8.81
2018-09-22T09:02:57.599Z,8.87
2018-09-22T09:03:57.476Z,8.96
2018-09-22T09:04:57.372Z,9.02
2018-09-22T09:05:57.233Z,9.12
2018-09-22T09:06:57.097Z,9.02
2018-09-22T09:07:56.970Z,9.12
2018-09-22T09:08:56.845Z,9.21
2018-09-22T09:09:56.718Z,9.28
2018-09-22T09:10:56.597Z,9.32
2018-09-22T09:11:56.471Z,9.24
2018-09-22T09:12:56.341Z,9.39
2018-09-22T09:13:56.217Z,9.21
2018-09-22T09:14:56.091Z,9.31
2018-09-22T09:15:55.964Z,9.50
2018-09-22T09:16:55.871Z,9.60
2018-09-22T09:17:55.737Z,9.75
2018-09-22T09:18:55.585Z,9.81
2018-09-22T09:19:55.459Z,9.94
2018-09-22T09:20:55.354Z,10.00
2018-09-22T09:21:55.211Z,9.88
2018-09-22T09:22:55.085Z,9.99
2018-09-22T09:23:54.960Z,10.06
2018-09-22T09:24:54.832Z,10.00
2018-09-22T09:25:54.709Z,9.86
2018-09-22T09:26:54.755Z,9.86
2018-09-22T09:27:54.457Z,10.00
2018-09-22T09:28:54.334Z,9.89
2018-09-22T09:29:54.380Z,9.97
2018-09-22T09:30:54.081Z,10.04
2018-09-22T09:31:53.956Z,10.03
2018-09-22T09:32:53.831Z,10.17
2018-09-22T09:33:53.710Z,9.99
2018-09-22T09:34:53.582Z,10.09
2018-09-22T09:35:53.461Z,10.03
2018-09-22T09:36:53.329Z,9.86
2018-09-22T09:37:53.315Z,9.91
2018-09-22T09:38:53.082Z,9.88
2018-09-22T09:39:52.954Z,9.93
2018-09-22T09:40:52.830Z,9.82
2018-09-22T09:41:52.706Z,9.81
2018-09-22T09:42:52.582Z,9.86
2018-09-22T09:43:52.455Z,10.17
2018-09-22T09:44:52.331Z,10.14
2018-09-22T09:45:52.230Z,10.26
2018-09-22T09:46:52.080Z,10.37
2018-09-22T09:47:51.961Z,10.39
2018-09-22T09:48:51.831Z,10.52
2018-09-22T09:49:51.710Z,10.59
2018-09-22T09:50:51.580Z,10.60
2018-09-22T09:51:51.455Z,10.73
2018-09-22T09:52:51.330Z,10.68
2018-09-22T09:53:51.205Z,10.65
2018-09-22T09:54:51.142Z,10.68
2018-09-22T09:55:50.956Z,10.59
2018-09-22T09:56:50.901Z,10.59
2018-09-22T09:57:50.708Z,10.63
2018-09-22T09:58:50.583Z,10.59
2018-09-22T09:59:50.545Z,10.62
2018-09-22T10:00:50.332Z,11.02
2018-09-22T10:01:50.208Z,11.24
2018-09-22T10:02:50.086Z,11.35
2018-09-22T10:03:49.958Z,11.44
2018-09-22T10:04:49.838Z,11.28
2018-09-22T10:05:49.710Z,11.38
2018-09-22T10:06:49.628Z,11.47
2018-09-22T10:07:49.470Z,11.56
2018-09-22T10:08:49.342Z,11.44
2018-09-22T10:09:49.212Z,11.70
2018-09-22T10:10:49.093Z,11.77
2018-09-22T10:11:49.009Z,11.61
2018-09-22T10:12:48.839Z,11.64
2018-09-22T10:13:48.715Z,11.57
2018-09-22T10:14:48.602Z,11.47
2018-09-22T10:15:48.466Z,11.43
2018-09-22T10:16:48.346Z,11.44
2018-09-22T10:17:48.220Z,11.34
2018-09-22T10:18:48.096Z,11.31
2018-09-22T10:19:47.973Z,11.28
2018-09-22T10:20:47.849Z,11.31
2018-09-22T10:21:47.724Z,11.34
2018-09-22T10:22:47.599Z,11.46
2018-09-22T10:23:47.478Z,11.39
2018-09-22T10:24:47.350Z,11.57
2018-09-22T10:25:47.234Z,11.54
2018-09-22T10:26:47.103Z,11.74
2018-09-22T10:27:46.979Z,11.77
2018-09-22T10:28:46.875Z,11.86
2018-09-22T10:29:46.732Z,11.99
2018-09-22T10:30:46.607Z,12.04
2018-09-22T10:31:46.481Z,12.09
2018-09-22T10:32:46.361Z,12.08
2018-09-22T10:33:46.237Z,12.12
2018-09-22T10:34:46.111Z,12.11
2018-09-22T10:35:45.987Z,12.16
2018-09-22T10:36:45.861Z,12.06
2018-09-22T10:37:45.739Z,12.04
2018-09-22T10:38:45.615Z,11.87
2018-09-22T10:39:45.499Z,11.72
2018-09-22T10:40:45.368Z,11.77
2018-09-22T10:41:45.249Z,11.85
2018-09-22T10:42:45.126Z,11.86
2018-09-22T10:43:44.997Z,11.93
2018-09-22T10:44:44.916Z,11.96
2018-09-22T10:45:44.809Z,12.09
2018-09-22T10:46:44.624Z,12.34
2018-09-22T10:47:44.538Z,12.49
2018-09-22T10:48:44.378Z,12.84
2018-09-22T10:49:44.254Z,12.97
2018-09-22T10:50:44.132Z,13.00
2018-09-22T10:51:44.008Z,12.79
2018-09-22T10:52:43.956Z,12.59
2018-09-22T10:53:43.761Z,12.92
2018-09-22T10:54:43.651Z,12.87
2018-09-22T10:55:43.513Z,13.06
2018-09-22T10:56:43.434Z,13.32
2018-09-22T10:57:43.335Z,13.73
2018-09-22T10:58:43.145Z,14.09
2018-09-22T10:59:43.022Z,14.56
2018-09-22T11:00:42.897Z,14.75
2018-09-22T11:01:42.774Z,14.91
2018-09-22T11:02:42.673Z,15.02
2018-09-22T11:03:42.530Z,15.33
2018-09-22T11:04:42.443Z,15.36
2018-09-22T11:05:42.283Z,15.08
2018-09-22T11:06:42.163Z,15.09
2018-09-22T11:07:42.169Z,14.72
2018-09-22T11:08:41.919Z,13.89
2018-09-22T11:09:41.804Z,13.88
2018-09-22T11:10:41.675Z,14.32
2018-09-22T11:11:41.761Z,14.78
2018-09-22T11:12:41.496Z,15.05
2018-09-22T11:13:41.313Z,15.08
2018-09-22T11:14:41.188Z,15.12
2018-09-22T11:15:41.068Z,15.09
2018-09-22T11:16:40.946Z,14.94
2018-09-22T11:17:40.828Z,14.93
2018-09-22T11:18:40.786Z,14.91
2018-09-22T11:19:40.584Z,14.87
2018-09-22T11:20:40.460Z,15.01
2018-09-22T11:21:40.403Z,14.98
2018-09-22T11:22:40.217Z,14.95
2018-09-22T11:23:40.098Z,15.09
2018-09-22T11:24:39.973Z,15.17
2018-09-22T11:25:39.851Z,15.30
2018-09-22T11:26:39.772Z,15.09
2018-09-22T11:27:39.637Z,15.30
2018-09-22T11:28:39.541Z,15.57
2018-09-22T11:29:39.370Z,15.59
2018-09-22T11:30:39.245Z,15.45
2018-09-22T11:31:39.170Z,15.27
2018-09-22T11:32:39.021Z,15.13
2018-09-22T11:33:38.879Z,15.15
2018-09-22T11:34:38.759Z,15.23
2018-09-22T11:35:38.637Z,15.38
2018-09-22T11:36:38.517Z,15.24
2018-09-22T11:37:38.395Z,15.43
2018-09-22T11:38:38.277Z,15.52
2018-09-22T11:39:38.154Z,15.33
2018-09-22T11:40:38.034Z,15.26
2018-09-22T11:41:37.910Z,15.20
2018-09-22T11:42:37.799Z,15.61
2018-09-22T11:43:37.671Z,15.82
2018-09-22T11:44:37.549Z,16.38
2018-09-22T11:45:37.424Z,16.65
2018-09-22T11:46:37.305Z,16.23
2018-09-22T11:47:37.183Z,16.30
2018-09-22T11:48:37.062Z,16.18
2018-09-22T11:49:36.955Z,16.37
2018-09-22T11:50:36.820Z,16.41
2018-09-22T11:51:36.699Z,16.60
2018-09-22T11:52:36.682Z,16.71
2018-09-22T11:53:36.490Z,16.63
2018-09-22T11:54:36.338Z,16.58
2018-09-22T11:55:36.216Z,16.56
2018-09-22T11:56:36.173Z,16.27
2018-09-22T11:57:35.972Z,16.18
2018-09-22T11:58:35.852Z,16.14
2018-09-22T11:59:35.734Z,16.48
2018-09-22T12:00:35.610Z,16.44
2018-09-22T12:01:35.494Z,16.55
2018-09-22T12:02:35.369Z,16.31
2018-09-22T12:03:35.251Z,16.15
2018-09-22T12:04:35.131Z,15.82
2018-09-22T12:05:35.009Z,15.66
2018-09-22T12:06:34.978Z,15.52
2018-09-22T12:07:34.767Z,15.46
2018-09-22T12:08:34.646Z,15.64
2018-09-22T12:09:34.525Z,15.81
2018-09-22T12:10:34.405Z,16.20
2018-09-22T12:11:34.285Z,16.06
2018-09-22T12:12:34.162Z,15.89
2018-09-22T12:13:34.039Z,15.99
2018-09-22T12:14:33.920Z,16.14
2018-09-22T12:15:33.807Z,16.20
2018-09-22T12:16:33.678Z,15.78
2018-09-22T12:17:33.560Z,15.72
2018-09-22T12:18:33.436Z,15.54
2018-09-22T12:19:33.316Z,15.79
2018-09-22T12:20:33.195Z,16.01
2018-09-22T12:21:33.075Z,16.16
2018-09-22T12:22:32.957Z,16.27
2018-09-22T12:23:32.835Z,16.25
2018-09-22T12:24:32.712Z,16.38
2018-09-22T12:25:32.591Z,16.42
2018-09-22T12:26:32.469Z,16.26
2018-09-22T12:27:32.356Z,16.52
2018-09-22T12:28:32.242Z,16.42
2018-09-22T12:29:32.106Z,16.37
2018-09-22T12:30:31.988Z,16.15
2018-09-22T12:31:31.865Z,16.04
2018-09-22T12:32:31.744Z,15.94
2018-09-22T12:33:31.623Z,15.61
2018-09-22T12:34:31.506Z,15.74
2018-09-22T12:35:31.384Z,16.04
2018-09-22T12:36:31.262Z,16.37
2018-09-22T12:37:31.145Z,16.49
2018-09-22T12:38:31.019Z,16.65
2018-09-22T12:39:30.904Z,16.48
2018-09-22T12:40:30.780Z,16.48
2018-09-22T12:41:30.663Z,15.92
2018-09-22T12:42:30.536Z,16.16
2018-09-22T12:43:30.415Z,16.25
2018-09-22T12:44:30.297Z,16.20
2018-09-22T12:45:30.177Z,16.22
2018-09-22T12:46:30.054Z,16.25
2018-09-22T12:47:29.934Z,16.11
2018-09-22T12:48:29.817Z,16.33
2018-09-22T12:49:29.770Z,16.30
2018-09-22T12:50:29.581Z,16.41
2018-09-22T12:51:29.462Z,16.55
2018-09-22T12:52:29.331Z,16.48
2018-09-22T12:53:29.211Z,16.58
2018-09-22T12:54:29.114Z,16.52
2018-09-22T12:55:28.971Z,16.31
2018-09-22T12:56:28.849Z,16.62
2018-09-22T12:57:28.727Z,16.80
2018-09-22T12:58:28.607Z,16.75
2018-09-22T12:59:28.488Z,16.83
2018-09-22T13:00:28.367Z,16.71
2018-09-22T13:01:28.247Z,16.96
2018-09-22T13:02:28.127Z,17.15
2018-09-22T13:03:28.005Z,17.17
2018-09-22T13:04:27.887Z,17.06
2018-09-22T13:05:27.766Z,16.92